createdAt,value
2022-08-12T00:03:37.167Z,15.68
2022-08-12T00:08:59.257Z,15.64
2022-08-12T00:14:21.304Z,15.61
2022-08-12T00:19:43.970Z,15.56
2022-08-12T00:25:06.839Z,15.49
2022-08-12T00:30:29.604Z,15.42
2022-08-12T00:35:51.563Z,15.36
2022-08-12T00:41:14.433Z,15.33
2022-08-12T00:46:32.892Z,15.30
2022-08-12T00:51:59.138Z,15.21
2022-08-12T00:57:05.808Z,15.14
2022-08-12T01:02:12.668Z,15.08
2022-08-12T01:07:35.595Z,15.05
2022-08-12T01:12:41.982Z,15.01
2022-08-12T01:17:46.413Z,14.98
2022-08-12T01:23:15.833Z,14.94
2022-08-12T01:28:21.351Z,14.91
2022-08-12T01:33:27.626Z,14.89
2022-08-12T01:38:34.879Z,14.84
2022-08-12T01:43:39.608Z,14.83
2022-08-12T01:49:07.818Z,14.81
2022-08-12T01:54:14.402Z,14.81
2022-08-12T01:59:50.391Z,14.74
2022-08-12T02:05:24.316Z,14.70
2022-08-12T02:11:19.334Z,14.68
2022-08-12T02:16:58.677Z,14.64
2022-08-12T02:22:01.918Z,14.62
2022-08-12T02:27:10.721Z,14.60
2022-08-12T02:32:15.586Z,14.55
2022-08-12T02:37:20.784Z,14.53
2022-08-12T02:42:25.547Z,14.49
2022-08-12T02:48:00.649Z,14.47
2022-08-12T02:52:58.587Z,14.46
2022-08-12T02:58:12.050Z,14.47
2022-08-12T03:03:23.327Z,14.48
2022-08-12T03:08:32.614Z,14.45
2022-08-12T03:13:41.874Z,14.42
2022-08-12T03:18:46.442Z,14.37
2022-08-12T03:23:49.928Z,14.38
2022-08-12T03:28:54.569Z,14.43
2022-08-12T03:34:03.295Z,14.48
2022-08-12T03:39:19.067Z,14.51
2022-08-12T03:44:56.525Z,14.54
2022-08-12T03:50:19.186Z,14.55
2022-08-12T03:55:40.929Z,14.59
2022-08-12T04:00:46.347Z,14.69
2022-08-12T04:05:55.485Z,14.85
2022-08-12T04:11:18.410Z,15.02
2022-08-12T04:16:22.643Z,15.22
2022-08-12T04:21:26.055Z,15.43
2022-08-12T04:26:29.879Z,15.61
2022-08-12T04:31:40.252Z,15.76
2022-08-12T04:36:45.408Z,15.88
2022-08-12T04:41:58.302Z,15.98
2022-08-12T04:47:02.683Z,16.12
2022-08-12T04:52:06.500Z,16.27
2022-08-12T04:57:10.435Z,16.42
2022-08-12T05:02:16.695Z,16.64
2022-08-12T05:07:21.350Z,16.88
2022-08-12T05:12:26.886Z,17.21
2022-08-12T05:17:30.361Z,17.57
2022-08-12T05:22:37.198Z,17.90
2022-08-12T05:27:58.762Z,18.07
2022-08-12T05:33:05.572Z,18.13
2022-08-12T05:38:33.239Z,18.28
2022-08-12T05:43:36.543Z,18.43
2022-08-12T05:48:40.058Z,18.56
2022-08-12T05:53:43.778Z,18.74
2022-08-12T05:58:47.909Z,18.89
2022-08-12T06:03:51.887Z,19.09
2022-08-12T06:08:55.302Z,19.32
2022-08-12T06:13:58.867Z,19.59
2022-08-12T06:19:02.756Z,19.97
2022-08-12T06:24:06.310Z,20.26
2022-08-12T06:29:09.719Z,20.50
2022-08-12T06:35:22.986Z,20.78
2022-08-12T06:39:38.306Z,21.02
2022-08-12T06:44:41.720Z,21.23
2022-08-12T06:49:44.979Z,21.47
2022-08-12T06:54:48.290Z,21.76
2022-08-12T06:59:51.806Z,22.01
2022-08-12T07:04:55.116Z,22.21
2022-08-12T07:10:05.752Z,22.44
2022-08-12T07:15:12.291Z,22.72
2022-08-12T07:20:49.812Z,22.90
2022-08-12T07:25:41.537Z,23.13
2022-08-12T07:30:49.489Z,23.42
2022-08-12T07:35:54.422Z,23.58
2022-08-12T07:41:03.656Z,23.69
2022-08-12T07:46:10.717Z,23.86
2022-08-12T07:51:25.340Z,24.07
2022-08-12T07:56:31.529Z,24.38
2022-08-12T08:01:38.231Z,24.57
2022-08-12T08:06:43.230Z,24.64
2022-08-12T08:12:04.992Z,24.76
2022-08-12T08:17:10.762Z,24.95
2022-08-12T08:22:14.177Z,25.06
2022-08-12T08:27:17.588Z,25.20
2022-08-12T08:32:20.898Z,25.41
2022-08-12T08:37:24.209Z,25.56
2022-08-12T08:42:40.791Z,25.69
2022-08-12T08:47:48.648Z,25.77
2022-08-12T08:52:52.164Z,25.79
2022-08-12T08:57:55.529Z,26.01
2022-08-12T09:02:59.951Z,26.14
2022-08-12T09:08:12.107Z,26.32
2022-08-12T09:13:29.371Z,26.36
2022-08-12T09:18:52.142Z,26.42
2022-08-12T09:24:06.032Z,26.48
2022-08-12T09:29:12.202Z,26.63
2022-08-12T09:34:25.445Z,26.83
2022-08-12T09:40:02.566Z,26.97
2022-08-12T09:45:22.749Z,27.04
2022-08-12T09:50:28.305Z,27.25
2022-08-12T09:56:05.639Z,27.40
2022-08-12T10:01:10.691Z,27.35
2022-08-12T10:06:27.271Z,27.06
2022-08-12T10:12:05.606Z,27.12
2022-08-12T10:17:14.956Z,27.28
2022-08-12T10:22:36.881Z,27.57
2022-08-12T10:28:04.549Z,27.64
2022-08-12T10:33:18.226Z,27.86
2022-08-12T10:38:38.882Z,27.72
2022-08-12T10:43:55.754Z,27.85
2022-08-12T10:49:06.902Z,28.07
2022-08-12T10:54:28.213Z,28.14
2022-08-12T11:00:29.456Z,27.99
2022-08-12T11:05:00.846Z,27.95
2022-08-12T11:10:26.536Z,28.31
2022-08-12T11:16:02.557Z,28.61
2022-08-12T11:20:58.014Z,28.64
2022-08-12T11:26:05.542Z,28.50
2022-08-12T11:31:14.247Z,28.70
2022-08-12T11:36:21.771Z,29.04
2022-08-12T11:41:31.621Z,29.19
2022-08-12T11:46:38.018Z,29.23
2022-08-12T11:51:41.375Z,29.38
2022-08-12T11:56:59.331Z,29.38
2022-08-12T12:02:05.384Z,29.24
2022-08-12T12:07:11.497Z,29.32
2022-08-12T12:12:15.419Z,29.25
2022-08-12T12:17:18.838Z,29.01
2022-08-12T12:22:30.865Z,28.93
2022-08-12T12:28:04.495Z,29.41
2022-08-12T12:33:10.549Z,29.94
2022-08-12T12:38:25.184Z,30.38
2022-08-12T12:43:43.255Z,30.95
2022-08-12T12:48:48.440Z,31.38
2022-08-12T12:54:09.032Z,31.26
2022-08-12T12:59:55.349Z,31.10
2022-08-12T13:04:37.895Z,30.97
2022-08-12T13:09:41.318Z,30.83
2022-08-12T13:14:50.147Z,31.10
2022-08-12T13:19:55.006Z,31.28
2022-08-12T13:25:00.035Z,31.18
2022-08-12T13:30:10.789Z,31.22
2022-08-12T13:35:19.699Z,31.41
2022-08-12T13:40:40.493Z,31.60
2022-08-12T13:45:44.334Z,32.22
2022-08-12T13:50:48.053Z,32.52
2022-08-12T13:56:01.515Z,32.68
2022-08-12T14:01:06.455Z,33.19
2022-08-12T14:06:15.362Z,34.18
2022-08-12T14:11:27.792Z,35.84
2022-08-12T14:16:37.683Z,38.78
2022-08-12T14:22:00.480Z,39.51
2022-08-12T14:27:08.698Z,43.13
2022-08-12T14:32:16.401Z,45.69
2022-08-12T14:37:54.926Z,48.94
2022-08-12T14:42:46.932Z,52.38
2022-08-12T14:47:58.620Z,52.34
2022-08-12T14:58:27.433Z,51.04
2022-08-12T15:03:52.073Z,45.83
2022-08-12T15:08:55.758Z,42.23
2022-08-12T15:14:00.503Z,44.68
2022-08-12T15:20:28.105Z,46.94
2022-08-12T15:24:33.851Z,49.83
2022-08-12T15:29:37.981Z,50.75
2022-08-12T15:34:41.292Z,50.99
2022-08-12T15:39:55.257Z,51.57
2022-08-12T15:45:08.567Z,51.49
2022-08-12T15:50:26.366Z,49.90
2022-08-12T15:55:33.638Z,49.44
2022-08-12T16:00:40.023Z,49.79
2022-08-12T16:06:11.186Z,46.37
2022-08-12T16:11:15.279Z,42.53
2022-08-12T16:16:23.596Z,40.29
2022-08-12T16:21:52.683Z,39.34
2022-08-12T16:26:54.408Z,39.34
2022-08-12T16:31:59.653Z,38.44
2022-08-12T16:37:09.106Z,38.15
2022-08-12T16:42:13.746Z,37.94
2022-08-12T16:47:18.732Z,38.21
2022-08-12T16:52:22.338Z,38.73
2022-08-12T16:57:35.185Z,39.45
2022-08-12T17:02:40.564Z,39.86
2022-08-12T17:07:52.498Z,39.42
2022-08-12T17:12:59.054Z,37.80
2022-08-12T17:18:38.972Z,36.56
2022-08-12T17:23:33.215Z,35.09
2022-08-12T17:28:53.365Z,33.39
2022-08-12T17:33:58.308Z,31.89
2022-08-12T17:39:09.530Z,31.40
2022-08-12T17:44:12.884Z,31.12
2022-08-12T17:50:01.819Z,31.01
2022-08-12T17:54:45.670Z,30.70
2022-08-12T17:59:50.573Z,30.06
2022-08-12T18:05:09.738Z,29.21
2022-08-12T18:10:39.377Z,28.27
2022-08-12T18:16:06.175Z,27.41
2022-08-12T18:21:11.189Z,26.80
2022-08-12T18:26:26.897Z,26.32
2022-08-12T18:31:43.792Z,25.93
2022-08-12T18:36:50.212Z,25.57
2022-08-12T18:41:55.976Z,25.23
2022-08-12T18:47:02.611Z,24.96
2022-08-12T18:52:11.526Z,24.71
2022-08-12T18:57:45.788Z,24.48
2022-08-12T19:02:42.781Z,24.21
2022-08-12T19:08:01.692Z,23.98
2022-08-12T19:13:25.469Z,23.78
2022-08-12T19:18:40.467Z,23.64
2022-08-12T19:23:44.174Z,23.52
2022-08-12T19:28:49.693Z,23.38
2022-08-12T19:34:25.408Z,23.22
2022-08-12T19:39:23.091Z,23.08
2022-08-12T19:44:29.676Z,22.96
2022-08-12T19:49:34.521Z,22.83
2022-08-12T19:54:43.947Z,22.70
2022-08-12T20:00:03.554Z,22.57
2022-08-12T20:06:05.170Z,22.41
2022-08-12T20:10:35.312Z,22.26
2022-08-12T20:15:44.520Z,22.13
2022-08-12T20:20:48.760Z,22.03
2022-08-12T20:26:01.926Z,21.94
2022-08-12T20:31:12.383Z,21.83
2022-08-12T20:36:41.318Z,21.78
2022-08-12T20:41:41.633Z,21.76
2022-08-12T20:46:45.614Z,21.71
2022-08-12T20:51:55.070Z,21.69
2022-08-12T20:57:01.012Z,21.69
2022-08-12T21:02:05.903Z,21.67
2022-08-12T21:07:11.425Z,21.63
2022-08-12T21:12:28.362Z,21.59
2022-08-12T21:18:08.689Z,21.55
2022-08-12T21:22:58.562Z,21.51
2022-08-12T21:28:01.967Z,21.46
2022-08-12T21:33:10.597Z,21.40
2022-08-12T21:38:18.668Z,21.32
2022-08-12T21:43:22.085Z,21.25
2022-08-12T21:48:26.029Z,21.23
2022-08-12T21:54:06.142Z,21.20
2022-08-12T21:58:53.522Z,21.19
2022-08-12T22:04:15.675Z,21.17
2022-08-12T22:09:22.671Z,21.15
2022-08-12T22:14:28.050Z,21.15
2022-08-12T22:19:33.598Z,21.15
2022-08-12T22:24:38.748Z,21.15
2022-08-12T22:30:01.071Z,21.14
2022-08-12T22:35:29.360Z,21.12
2022-08-12T22:40:33.021Z,21.10
2022-08-12T22:46:03.776Z,21.07
2022-08-12T22:51:07.188Z,21.01
2022-08-12T22:56:14.443Z,20.99
2022-08-12T23:01:51.599Z,20.95
2022-08-12T23:06:44.666Z,20.92
2022-08-12T23:11:51.459Z,20.87
2022-08-12T23:16:56.612Z,20.79
2022-08-12T23:22:36.583Z,20.73
2022-08-12T23:27:51.994Z,20.67
2022-08-12T23:33:00.742Z,20.58
2022-08-12T23:38:04.233Z,20.48
2022-08-12T23:43:12.453Z,20.36
2022-08-12T23:48:23.115Z,20.25
2022-08-12T23:53:35.056Z,20.14
2022-08-12T23:58:49.935Z,20.07
